ADDS METAR Data INFO
IDs: Format: Raw Decoded Include TAF

Data at: 0203 UTC 26 Apr 2017

METAR for:KCRP (Corpus Christi Intl, TX, US)
Text:KCRP 260151Z 16022G28KT 10SM FEW011 SCT180 SCT250 25/23 A2951 RMK AO2 PK WND 15031/0059 SLP990 T02500228
Temperature: 25.0°C ( 77°F)
Dewpoint: 22.8°C ( 73°F) [RH = 88%]
Pressure (altimeter):29.51 inches Hg ( 999.4 mb) [Sea level pressure: 999.0 mb]
Winds:from the SSE (160 degrees) at 25 MPH (22 knots; 11.3 m/s) gusting to 32 MPH (28 knots; 14.4 m/s)
Visibility:10 or more sm (16+ km)
Ceiling:at least 12,000 feet AGL
Clouds: few clouds at 1100 feet AGL, scattered clouds at 18000 feet AGL, scattered clouds at 25000 feet AGL


Page loaded:  02:03 UTC  |   07:03 PM Pacific  |   08:03 PM Mountain  |   09:03 PM Central  |   10:03 PM Eastern

 

ADVISORIES

FORECASTS

FORECASTS

OBSERVATIONS

USER TOOLS

ABOUT US